Forest fire From: 19-07-2018 20:00 Until: 20-07-2018 16:00 warning for: Forest fire Level: Yellow info button
suomi:
Metsäpalovaroitus on voimassa.

svenska:
Varning för skogsbrand gäller.

english:
A forest fire warning is in force. 

Extreme high temperature From: 19-07-2018 20:00 Until: 23:00 warning for: Extreme high temperature Level: Yellow info button
suomi:
Hellevaroitus: Lähivuorokauden aikana on odotettavissa tukalaa hellettä.

svenska:
Varning för värmebölja: Under det närmaste dygnet är den svåra hettan att vänta.

english:
Heat wave warning: Warm weather is expected during the coming 24 hours. 


Thunder radar more information blitzortung!


Löydät sääaseman tiedot myös:

European Weather Network

Finland Weather Exchange

Weather Underground

AWEKAS



Weather Underground säähistoriasivu

Päivittäin yhteenveto Huhtikuu 5, 2017 Yksiköt:  Englantilaiset    Metriset   Molemmat
« Edellinen Päivä
Seuraava Päivä »
Päivittäin Viikoittain Kuukausittain Vuosittain Mukautettu
  Korkea: Matala: Keskiarvo:
Lämpötila: TemperatureC °F -3.2 °F 2.9 °F
Kastepiste: DewpointC °F -3.9 °F 0.7 °F
Kosteus: Humidity % 62 % 85 %
Tuulen nopeus: WindSpeedKMH mph 0.0 mph 2 mph
Tuulenpuuska: WindSpeedGustKMH mph - -
Tuuli:- - SSW
Ilmanpaine: PressurehPa in 998.5 in -
Sade: 0.0 in    
Historical Graphs
 
 
Taulukkotiedot Huhtikuu 5, 2017
Aika Lämpötila Kastepiste Ilmanpaine Tuuli Tuulen nopeus Tuulenpuuska Kosteus Sademäärä (tunneittain)
TemperatureC °F DewpointC °F PressurehPa in Calm     Humidity % HourlyPrecipMM in
00:00 3.1 °F 2.1 °F 1001.6 in SSW 3.2 mph 8.0 mph 93 % 0.0 in
00:15 3.2 °F 2.1 °F 1001.6 in SW 3.2 mph 9.7 mph 93 % 0.0 in
00:30 3.2 °F 2.2 °F 1001.2 in SSW 1.6 mph 6.4 mph 93 % 0.0 in
00:45 3.2 °F 2.2 °F 1001.2 in SSW 1.6 mph 4.8 mph 93 % 0.0 in
01:00 3.2 °F 2.1 °F 1001.2 in Calm   4.8 mph 93 % 0.0 in
01:15 3.2 °F 2.2 °F 1000.9 in SSW 1.6 mph 6.4 mph 93 % 0.0 in
01:30 3.2 °F 2.2 °F 1000.9 in Calm     93 % 0.0 in
01:45 3.2 °F 2.2 °F 1000.9 in Calm     93 % 0.0 in
02:00 3.3 °F 2.3 °F 1000.9 in Calm   4.8 mph 93 % 0.0 in
02:15 3.3 °F 2.3 °F 1000.6 in South 1.6 mph 6.4 mph 93 % 0.0 in
02:30 3.4 °F 2.4 °F 1000.6 in South 1.6 mph 6.4 mph 93 % 0.0 in
02:45 3.4 °F 2.4 °F 1000.2 in South 3.2 mph 9.7 mph 93 % 0.0 in
03:00 3.5 °F 2.5 °F 1000.2 in SSW 3.2 mph 12.9 mph 93 % 0.0 in
03:15 3.7 °F 2.6 °F 1000.2 in SW 3.2 mph 8.0 mph 93 % 0.0 in
03:30 3.8 °F 2.7 °F 999.9 in SSW 1.6 mph 8.0 mph 92 % 0.0 in
03:45 4.1 °F 2.9 °F 999.9 in SSW 3.2 mph 11.3 mph 92 % 0.0 in
04:00 4.2 °F 2.8 °F 999.5 in SSW 3.2 mph 8.0 mph 91 % 0.0 in
04:15 5.0 °F 3.3 °F 999.2 in SSW 3.2 mph 9.7 mph 89 % 0.0 in
04:30 5.3 °F 3.3 °F 999.2 in South 3.2 mph 8.0 mph 87 % 0.0 in
04:45 5.8 °F 3.7 °F 999.2 in South 4.8 mph 11.3 mph 86 % 0.0 in
05:00 5.9 °F 3.6 °F 999.2 in SSW 4.8 mph 12.9 mph 85 % 0.0 in
05:15 5.9 °F 3.4 °F 999.2 in SSW 4.8 mph 14.5 mph 84 % 0.0 in
05:30 6.0 °F 3.3 °F 999.2 in SSW 4.8 mph 12.9 mph 83 % 0.0 in
05:45 6.6 °F 3.5 °F 998.9 in SSW 6.4 mph 14.5 mph 81 % 0.0 in
06:00 6.8 °F 3.4 °F 998.9 in South 3.2 mph 12.9 mph 79 % 0.0 in
06:15 6.5 °F 3.3 °F 998.9 in SSW 4.8 mph 11.3 mph 80 % 0.0 in
06:30 7.4 °F 3.2 °F 998.9 in SSW 6.4 mph 17.7 mph 75 % 0.0 in
06:45 7.9 °F 3.2 °F 998.5 in South 6.4 mph 17.7 mph 72 % 0.0 in
07:00 8.2 °F 3.7 °F 998.5 in SSW 6.4 mph 17.7 mph 73 % 0.0 in
07:15 7.8 °F 3.2 °F 998.5 in SSW 6.4 mph 17.7 mph 73 % 0.0 in
07:30 7.4 °F 2.9 °F 998.5 in SSW 8.0 mph 24.1 mph 73 % 0.0 in
07:45 7.2 °F 2.6 °F 998.9 in SSW 8.0 mph 17.7 mph 73 % 0.0 in
08:00 7.2 °F 2.7 °F 998.5 in SSW 6.4 mph 17.7 mph 73 % 0.0 in
08:15 7.3 °F 2.8 °F 998.9 in SSW 3.2 mph 16.1 mph 73 % 0.0 in
08:30 7.7 °F 3.0 °F 998.9 in SSW 4.8 mph 17.7 mph 72 % 0.0 in
08:45 8.6 °F 3.0 °F 998.9 in WSW 3.2 mph 12.9 mph 68 % 0.0 in
09:00 8.7 °F 2.9 °F 998.9 in WSW 1.6 mph 8.0 mph 67 % 0.0 in
09:15 8.6 °F 3.2 °F 998.5 in SSW 3.2 mph 11.3 mph 69 % 0.0 in
09:30 8.3 °F 2.5 °F 998.9 in SSW 4.8 mph 11.3 mph 67 % 0.0 in
09:45 8.5 °F 2.3 °F 998.9 in SW 3.2 mph 9.7 mph 65 % 0.0 in
10:00 7.9 °F 2.0 °F 998.9 in SSW 6.4 mph 14.5 mph 66 % 0.0 in
10:15 8.3 °F 1.9 °F 998.9 in SSW 6.4 mph 14.5 mph 64 % 0.0 in
10:30 8.4 °F 1.6 °F 998.9 in SW 4.8 mph 11.3 mph 62 % 0.0 in
10:45 7.9 °F 1.7 °F 998.9 in SSW 9.7 mph 20.9 mph 65 % 0.0 in
11:00 7.7 °F 1.7 °F 998.9 in SSW 6.4 mph 11.3 mph 66 % 0.0 in
11:15 7.4 °F 1.7 °F 999.2 in SSW 6.4 mph 12.9 mph 67 % 0.0 in
11:30 7.3 °F 2.0 °F 999.2 in SW 3.2 mph 8.0 mph 69 % 0.0 in
11:45 6.9 °F 1.8 °F 999.2 in SW 3.2 mph 9.7 mph 70 % 0.0 in
12:00 6.8 °F 1.7 °F 999.5 in SSW 4.8 mph 11.3 mph 70 % 0.0 in
12:15 6.7 °F 1.8 °F 999.5 in SSW 1.6 mph 6.4 mph 71 % 0.0 in
12:30 6.5 °F 1.6 °F 999.9 in Calm   1.6 mph 71 % 0.0 in
12:45 6.1 °F 2.0 °F 1000.2 in Calm   1.6 mph 75 % 0.0 in
13:00 5.2 °F 1.8 °F 1000.6 in Calm   1.6 mph 79 % 0.0 in
13:15 4.4 °F 1.8 °F 1000.9 in Calm   1.6 mph 83 % 0.0 in
13:30 3.7 °F 1.7 °F 1000.9 in Calm     87 % 0.0 in
13:45 3.2 °F 1.4 °F 1001.2 in Calm     88 % 0.0 in
14:00 2.7 °F 1.1 °F 1001.2 in Calm     89 % 0.0 in
14:15 2.4 °F 0.9 °F 1001.2 in Calm     90 % 0.0 in
14:30 2.1 °F 0.7 °F 1001.2 in Calm     91 % 0.0 in
14:45 1.8 °F 0.6 °F 1001.6 in Calm     92 % 0.0 in
15:00 1.6 °F 0.4 °F 1001.9 in Calm     92 % 0.0 in
15:15 1.3 °F 0.2 °F 1001.6 in Calm     92 % 0.0 in
15:30 1.1 °F 0.0 °F 1001.9 in Calm     92 % 0.0 in
15:45 0.7 °F -0.3 °F 1001.9 in Calm     93 % 0.0 in
16:00 0.2 °F -1.0 °F 1002.3 in Calm     92 % 0.0 in
16:15 -0.3 °F -1.3 °F 1002.3 in Calm     93 % 0.0 in
16:30 -0.4 °F -1.3 °F 1002.3 in Calm     94 % 0.0 in
16:45 -0.3 °F -1.2 °F 1002.3 in Calm     94 % 0.0 in
17:00 -0.4 °F -1.3 °F 1002.6 in Calm     94 % 0.0 in
17:15 -0.7 °F -1.6 °F 1002.6 in Calm     94 % 0.0 in
17:30 -0.9 °F -1.8 °F 1002.9 in Calm     94 % 0.0 in
17:45 -1.1 °F -2.0 °F 1002.9 in Calm     94 % 0.0 in
18:00 -1.2 °F -2.0 °F 1002.9 in Calm     94 % 0.0 in
18:15 -1.2 °F -1.9 °F 1003.3 in Calm     95 % 0.0 in
18:30 -1.3 °F -2.0 °F 1003.3 in Calm     95 % 0.0 in
18:45 -1.3 °F -2.0 °F 1003.6 in Calm   3.2 mph 95 % 0.0 in
19:00 -1.4 °F -2.1 °F 1003.6 in Calm     95 % 0.0 in
19:15 -1.5 °F -2.2 °F 1003.9 in Calm   1.6 mph 95 % 0.0 in
19:30 -1.7 °F -2.4 °F 1003.9 in Calm     95 % 0.0 in
19:45 -1.8 °F -2.5 °F 1003.9 in Calm     95 % 0.0 in
20:00 -1.9 °F -2.6 °F 1003.9 in Calm     95 % 0.0 in
20:15 -1.9 °F -2.6 °F 1003.9 in Calm     95 % 0.0 in
20:30 -1.9 °F -2.6 °F 1004.3 in Calm     95 % 0.0 in
20:45 -2.1 °F -2.7 °F 1004.3 in Calm     95 % 0.0 in
21:00 -2.2 °F -2.9 °F 1004.3 in Calm     95 % 0.0 in
21:15 -2.3 °F -3.0 °F 1004.3 in Calm     95 % 0.0 in
21:30 -2.5 °F -3.2 °F 1004.3 in Calm     95 % 0.0 in
21:45 -2.6 °F -3.2 °F 1004.3 in Calm     95 % 0.0 in
22:00 -2.7 °F -3.4 °F 1004.3 in Calm     95 % 0.0 in
22:15 -2.8 °F -3.5 °F 1004.3 in Calm     95 % 0.0 in
22:30 -2.9 °F -3.6 °F 1004.3 in Calm     95 % 0.0 in
22:45 -3.0 °F -3.7 °F 1004.3 in Calm     95 % 0.0 in
23:00 -3.1 °F -3.7 °F 1004.6 in Calm     95 % 0.0 in
23:15 -3.0 °F -3.7 °F 1004.6 in Calm     95 % 0.0 in
23:30 -3.2 °F -3.9 °F 1004.6 in Calm     95 % 0.0 in
23:45 -3.2 °F -3.9 °F 1004.6 in Calm     95 % 0.0 in
Esan sääasema
Terveisin Weather Underground - 2.75 mb

Alkuperäinen skripti  Jim McMurry - jmcmurry@mwt.net Sovitettu myös templatelle  Wim van der Kuil - Leuven-Template.eu

Laitteet joita käytämme:

Sääasema
Davis VP2

Sääasemaohjelma
Cumulus

Sääaseman tietokone
Asus EeePC

Palveluntarjoaja
Suncomet

Davis VP2

Cumulus

Asus EeePC

Suncomet